Time;durP1;ratioP1;P1;durP2;ratioP2;P2;SDS_P1;SDS_P2;PMS_P1;PMS_P2;Temp;Humidity;BMP_temperature;BMP_pressure;BME280_temperature;BME280_humidity;BME280_pressure;Samples;Min_cycle;Max_cycle;Signal;HPM_P1;HPM_P2
2022/12/22 03:26:49;;;;;;;174.75;37.42;;;8.70;99.90;;;;;;5056580;28;20442;-68
2022/12/22 03:29:15;;;;;;;263.58;41.95;;;8.60;99.90;;;;;;5043059;28;20040;-68
2022/12/22 03:31:40;;;;;;;172.93;36.55;;;8.60;99.90;;;;;;5045259;28;20076;-68
2022/12/22 03:34:07;;;;;;;205.27;39.35;;;8.60;99.90;;;;;;5046185;28;20029;-68
2022/12/22 03:36:32;;;;;;;151.77;35.10;;;8.70;99.90;;;;;;5045224;28;20499;-68
2022/12/22 03:38:58;;;;;;;160.05;37.25;;;8.60;99.90;;;;;;5040598;28;20059;-68
2022/12/22 03:46:52;;;;;;;143.05;35.92;;;8.60;99.90;;;;;;5042390;28;20056;-68
2022/12/22 03:49:18;;;;;;;170.80;37.88;;;8.60;99.90;;;;;;5057259;28;20396;-68
2022/12/22 03:51:49;;;;;;;140.90;36.35;;;8.60;99.90;;;;;;5029234;28;20037;-68
2022/12/22 03:54:17;;;;;;;129.85;34.35;;;8.70;99.90;;;;;;5028929;28;20539;-68
2022/12/22 03:56:43;;;;;;;160.65;35.65;;;8.60;99.90;;;;;;5047669;28;20134;-68
2022/12/22 03:59:09;;;;;;;190.75;36.85;;;8.70;99.90;;;;;;5043075;28;20041;-68
2022/12/22 04:01:41;;;;;;;208.02;37.38;;;8.70;99.90;;;;;;5043156;28;20514;-68
2022/12/22 04:04:07;;;;;;;161.70;34.58;;;8.60;99.90;;;;;;5046366;28;20812;-68
2022/12/22 04:06:32;;;;;;;208.43;37.75;;;8.60;99.90;;;;;;5046439;28;20124;-68
2022/12/22 04:08:58;;;;;;;186.63;35.63;;;8.60;99.90;;;;;;5047521;28;20396;-68
2022/12/22 04:14:08;;;;;;;139.32;35.10;;;8.70;99.90;;;;;;5064743;28;20411;-68
2022/12/22 04:16:34;;;;;;;145.27;34.17;;;8.60;99.90;;;;;;5048496;28;20025;-68
2022/12/22 04:18:59;;;;;;;215.00;37.05;;;8.70;99.90;;;;;;5046001;28;20107;-68
2022/12/22 04:21:26;;;;;;;194.85;35.38;;;8.60;99.90;;;;;;5029810;28;20049;-68
2022/12/22 04:23:51;;;;;;;284.00;40.08;;;8.60;99.90;;;;;;5046633;28;20037;-68
2022/12/22 04:26:22;;;;;;;170.25;36.13;;;8.60;99.90;;;;;;5048620;28;20041;-68
2022/12/22 04:28:49;;;;;;;177.00;36.15;;;8.70;99.90;;;;;;5031826;28;20044;-68
2022/12/22 04:31:17;;;;;;;335.05;41.53;;;8.60;99.90;;;;;;5050427;28;20048;-68
2022/12/22 04:33:43;;;;;;;582.15;48.33;;;8.70;99.90;;;;;;5045643;28;20440;-68
2022/12/22 04:36:09;;;;;;;277.23;38.65;;;8.70;99.90;;;;;;5031211;28;20179;-68
2022/12/22 04:38:35;;;;;;;199.13;36.03;;;8.70;99.90;;;;;;5050882;28;20107;-68
2022/12/22 04:41:01;;;;;;;134.25;32.50;;;8.70;99.90;;;;;;5049435;28;20132;-68
2022/12/22 04:43:26;;;;;;;174.50;35.20;;;8.70;99.90;;;;;;5046802;28;20170;-68
2022/12/22 04:45:53;;;;;;;136.82;33.10;;;8.60;99.90;;;;;;5047324;28;20044;-68
2022/12/22 04:48:19;;;;;;;240.48;37.10;;;8.60;99.90;;;;;;5052940;28;20284;-68
2022/12/22 04:50:45;;;;;;;177.35;33.85;;;8.60;99.90;;;;;;5052115;28;20122;-67
2022/12/22 04:53:11;;;;;;;456.23;45.35;;;8.60;99.90;;;;;;5048437;28;20117;-68
2022/12/22 04:55:36;;;;;;;442.80;44.25;;;8.50;99.90;;;;;;5044121;28;20045;-68
2022/12/22 04:58:02;;;;;;;427.42;45.10;;;8.60;99.90;;;;;;5047552;28;20041;-68
2022/12/22 05:00:27;;;;;;;264.90;39.88;;;8.60;99.90;;;;;;5049598;28;20135;-68
2022/12/22 05:02:53;;;;;;;293.17;40.42;;;8.60;99.90;;;;;;5047450;28;20198;-68
2022/12/22 05:05:19;;;;;;;309.30;40.58;;;8.60;99.90;;;;;;5050383;28;20039;-68
2022/12/22 05:07:44;;;;;;;348.33;40.78;;;8.60;99.90;;;;;;5050258;28;20066;-68
2022/12/22 05:10:10;;;;;;;337.02;42.53;;;8.70;99.90;;;;;;5050885;28;20036;-68
2022/12/22 05:12:54;;;;;;;290.95;42.78;;;8.80;99.90;;;;;;5042966;28;20132;-68
2022/12/22 05:15:24;;;;;;;321.75;46.05;;;8.70;99.90;;;;;;5046542;28;20033;-68
2022/12/22 05:17:50;;;;;;;383.63;47.38;;;8.80;99.90;;;;;;5047308;28;20111;-68
2022/12/22 05:20:17;;;;;;;301.77;45.97;;;8.70;99.90;;;;;;5049819;28;20119;-68
2022/12/22 05:22:42;;;;;;;321.35;44.33;;;8.70;99.90;;;;;;5043836;28;20045;-68
2022/12/22 05:25:08;;;;;;;305.77;46.47;;;8.70;99.90;;;;;;5043584;28;20426;-69
2022/12/22 05:27:35;;;;;;;277.98;41.80;;;8.80;99.90;;;;;;5046431;28;20041;-68
2022/12/22 05:30:00;;;;;;;313.52;44.35;;;8.70;99.90;;;;;;5048446;28;20495;-68
2022/12/22 05:32:26;;;;;;;375.95;47.78;;;8.70;99.90;;;;;;5043807;28;20041;-68
2022/12/22 05:34:51;;;;;;;489.55;53.85;;;8.70;99.90;;;;;;5055928;28;20479;-68
2022/12/22 05:37:17;;;;;;;436.73;50.83;;;8.70;99.90;;;;;;5048545;28;20036;-68
2022/12/22 05:39:43;;;;;;;505.92;54.08;;;8.60;99.90;;;;;;5051908;28;20047;-68
2022/12/22 05:42:08;;;;;;;445.98;54.60;;;8.60;99.90;;;;;;5056474;28;20476;-68
2022/12/22 05:44:34;;;;;;;359.63;52.15;;;8.60;99.90;;;;;;5048776;28;20051;-69
2022/12/22 05:47:01;;;;;;;469.05;55.97;;;8.70;99.90;;;;;;5051820;28;20120;-68
2022/12/22 05:49:27;;;;;;;517.20;54.88;;;8.70;99.90;;;;;;5054497;28;20033;-67
2022/12/22 05:51:54;;;;;;;582.85;59.80;;;8.60;99.90;;;;;;5048536;28;20587;-68
2022/12/22 05:54:20;;;;;;;520.90;53.40;;;8.70;99.90;;;;;;5047377;28;20128;-69
2022/12/22 05:56:45;;;;;;;779.47;64.50;;;8.60;99.90;;;;;;5046611;28;20132;-69
2022/12/22 05:59:11;;;;;;;956.20;75.20;;;8.70;99.90;;;;;;5046927;28;20040;-69
2022/12/22 06:01:37;;;;;;;895.65;66.82;;;8.70;99.90;;;;;;5040998;28;20051;-69
2022/12/22 06:04:03;;;;;;;487.70;44.80;;;8.60;99.90;;;;;;5049130;28;20036;-70
2022/12/22 06:06:28;;;;;;;269.65;34.83;;;8.60;99.90;;;;;;5040839;28;20073;-70
2022/12/22 06:08:54;;;;;;;420.42;43.03;;;8.70;99.90;;;;;;5039760;28;20040;-70
2022/12/22 06:11:19;;;;;;;301.35;38.58;;;8.60;99.90;;;;;;5054121;28;20045;-71
2022/12/22 06:13:45;;;;;;;323.25;43.53;;;8.60;99.90;;;;;;5039078;28;20510;-69
2022/12/22 06:16:11;;;;;;;267.55;43.72;;;8.50;99.90;;;;;;5040124;28;20048;-69
2022/12/22 06:18:37;;;;;;;249.80;40.25;;;8.50;99.90;;;;;;5041374;28;20495;-70
2022/12/22 06:21:03;;;;;;;214.43;37.70;;;8.50;99.90;;;;;;5037356;28;20399;-69
2022/12/22 06:23:28;;;;;;;294.77;43.28;;;8.50;99.90;;;;;;5039226;28;20083;-69
2022/12/22 06:25:59;;;;;;;153.45;30.05;;;8.40;99.90;;;;;;5037177;28;20184;-69
2022/12/22 06:28:26;;;;;;;203.75;38.00;;;8.40;99.90;;;;;;5021977;28;20463;-70
2022/12/22 06:30:53;;;;;;;206.00;37.10;;;8.40;99.90;;;;;;5040308;28;20136;-70
2022/12/22 06:33:18;;;;;;;208.45;38.80;;;8.30;99.90;;;;;;5039745;28;20449;-70
2022/12/22 06:35:44;;;;;;;223.00;37.88;;;8.30;99.90;;;;;;5042329;28;20041;-70
2022/12/22 06:38:10;;;;;;;181.50;35.45;;;8.20;99.90;;;;;;5042079;28;20060;-71
2022/12/22 06:40:36;;;;;;;211.68;35.15;;;8.10;99.90;;;;;;5041499;28;20076;-70
2022/12/22 06:43:07;;;;;;;190.35;34.72;;;8.10;99.90;;;;;;5025303;28;20483;-70
2022/12/22 06:45:37;;;;;;;210.32;35.05;;;8.00;99.90;;;;;;5039468;28;20048;-69
2022/12/22 06:48:03;;;;;;;214.13;36.33;;;8.00;99.90;;;;;;5050416;28;20048;-70
2022/12/22 06:50:29;;;;;;;242.73;37.40;;;7.80;99.90;;;;;;5058048;28;20499;-69
2022/12/22 06:52:55;;;;;;;270.40;36.88;;;7.70;99.90;;;;;;5037742;28;20037;-69
2022/12/22 06:55:20;;;;;;;326.88;38.65;;;7.50;99.90;;;;;;5041564;28;20507;-69
2022/12/22 06:57:46;;;;;;;356.25;41.30;;;7.50;99.90;;;;;;5045038;28;20041;-68
2022/12/22 07:00:12;;;;;;;429.60;42.28;;;7.30;99.90;;;;;;5046173;28;20036;-69
2022/12/22 07:02:37;;;;;;;678.03;49.55;;;7.20;99.90;;;;;;5043198;28;20081;-69
2022/12/22 07:05:03;;;;;;;876.35;57.13;;;7.20;99.90;;;;;;5029494;28;20136;-69
2022/12/22 07:07:29;;;;;;;1014.08;65.03;;;7.10;99.90;;;;;;5047335;28;20098;-69
2022/12/22 07:09:55;;;;;;;972.65;62.83;;;7.10;99.90;;;;;;5064118;28;20041;-70
2022/12/22 07:12:22;;;;;;;857.08;51.90;;;7.10;99.90;;;;;;5040422;28;20556;-69
2022/12/22 07:14:47;;;;;;;517.70;41.97;;;7.20;99.90;;;;;;5045528;28;20036;-69
2022/12/22 07:17:13;;;;;;;707.05;46.80;;;7.20;99.90;;;;;;5045426;28;20037;-70
2022/12/22 07:19:39;;;;;;;770.47;49.90;;;7.30;99.90;;;;;;5060441;28;20434;-69
2022/12/22 07:22:04;;;;;;;926.25;55.25;;;7.20;99.90;;;;;;5047648;28;20112;-69
2022/12/22 07:24:30;;;;;;;856.05;47.92;;;7.20;99.90;;;;;;5060172;28;20044;-69
2022/12/22 07:26:55;;;;;;;685.80;48.03;;;7.30;99.90;;;;;;5045811;28;20456;-69
2022/12/22 07:29:21;;;;;;;518.47;39.25;;;7.20;99.90;;;;;;5048475;28;20041;-69
2022/12/22 07:31:47;;;;;;;750.25;44.15;;;7.30;99.90;;;;;;5053010;28;20587;-69
2022/12/22 07:34:13;;;;;;;825.60;50.05;;;7.30;99.90;;;;;;5041975;28;20121;-69
2022/12/22 07:36:38;;;;;;;802.47;49.33;;;7.30;99.90;;;;;;5044154;28;20394;-68
2022/12/22 07:39:04;;;;;;;690.05;45.42;;;7.30;99.90;;;;;;5026355;28;20087;-69
2022/12/22 07:44:14;;;;;;;385.02;33.85;;;7.20;99.90;;;;;;5041348;28;20047;-69
2022/12/22 07:46:40;;;;;;;450.92;37.13;;;7.30;99.90;;;;;;5046532;28;20399;-69
2022/12/22 07:51:51;;;;;;;397.60;30.58;;;7.10;99.90;;;;;;5056428;28;20175;-69
2022/12/22 07:54:17;;;;;;;605.63;39.28;;;7.00;99.90;;;;;;5048127;28;20049;-68
2022/12/22 07:56:44;;;;;;;650.58;40.00;;;6.90;99.90;;;;;;5046956;28;20040;-69
2022/12/22 07:59:11;;;;;;;614.95;40.88;;;6.90;99.90;;;;;;5067420;28;20083;-68
2022/12/22 08:01:37;;;;;;;586.90;39.65;;;6.90;99.90;;;;;;5064761;28;20059;-66
2022/12/22 08:04:03;;;;;;;609.13;39.95;;;6.80;99.90;;;;;;5080146;28;20048;-68
2022/12/22 08:06:31;;;;;;;492.52;34.90;;;6.70;99.90;;;;;;5061354;28;20422;-67
2022/12/22 08:08:57;;;;;;;720.22;40.67;;;6.80;99.90;;;;;;5055035;28;20044;-67
2022/12/22 08:11:22;;;;;;;705.08;40.17;;;6.70;99.90;;;;;;5051996;28;20443;-68
2022/12/22 08:13:48;;;;;;;642.65;37.83;;;6.80;99.90;;;;;;5051902;28;20037;-68
2022/12/22 08:16:15;;;;;;;597.47;36.45;;;6.80;99.90;;;;;;5059501;28;20043;-68
2022/12/22 08:18:41;;;;;;;652.13;34.85;;;6.70;99.90;;;;;;5038055;28;20106;-68
2022/12/22 08:21:08;;;;;;;550.13;31.05;;;6.60;99.90;;;;;;5070565;28;20048;-68
2022/12/22 08:23:34;;;;;;;575.83;33.25;;;6.60;99.90;;;;;;5054487;28;20051;-69
2022/12/22 08:26:11;;;;;;;585.50;33.53;;;6.70;99.90;;;;;;5064546;28;20567;-68
2022/12/22 08:28:44;;;;;;;678.42;38.25;;;6.70;99.90;;;;;;5051025;28;20392;-68
2022/12/22 08:31:10;;;;;;;620.00;38.92;;;6.80;99.90;;;;;;5040784;28;20125;-68
2022/12/22 08:33:35;;;;;;;643.60;42.50;;;6.70;99.90;;;;;;5071300;28;20491;-67
2022/12/22 08:36:02;;;;;;;643.08;39.75;;;6.80;99.90;;;;;;5069422;28;20124;-67
2022/12/22 08:38:28;;;;;;;759.67;42.33;;;6.80;99.90;;;;;;5049369;28;20045;-69
2022/12/22 08:40:54;;;;;;;826.80;45.92;;;6.80;99.90;;;;;;5053609;28;20033;-68
2022/12/22 08:43:33;;;;;;;815.53;44.00;;;6.80;99.90;;;;;;5043517;28;20033;-68
2022/12/22 08:45:59;;;;;;;806.15;46.72;;;6.90;99.90;;;;;;5034199;28;20439;-67
2022/12/22 08:48:24;;;;;;;820.22;46.58;;;6.80;99.90;;;;;;5043093;28;20044;-67
2022/12/22 08:50:50;;;;;;;736.10;42.33;;;6.80;99.90;;;;;;5071438;28;20037;-69
2022/12/22 08:53:16;;;;;;;644.28;40.25;;;6.90;99.90;;;;;;5068475;28;20041;-66
2022/12/22 08:55:50;;;;;;;652.97;42.00;;;6.90;99.90;;;;;;5052684;28;20084;-67
2022/12/22 08:58:15;;;;;;;572.92;36.63;;;6.80;99.90;;;;;;5063780;28;20536;-67
2022/12/22 09:00:41;;;;;;;592.38;36.60;;;6.80;99.90;;;;;;5055726;28;20041;-68
2022/12/22 09:03:07;;;;;;;478.95;34.92;;;6.70;99.90;;;;;;5047445;28;20513;-69
2022/12/22 09:05:32;;;;;;;489.70;31.95;;;6.50;99.90;;;;;;5033127;28;20396;-67
2022/12/22 09:07:59;;;;;;;602.88;34.83;;;6.50;99.90;;;;;;5047558;28;20445;-69
2022/12/22 09:10:26;;;;;;;534.75;36.38;;;6.60;99.90;;;;;;5052798;28;20033;-67
2022/12/22 09:12:52;;;;;;;542.80;35.35;;;6.50;99.90;;;;;;5048883;28;20102;-67
2022/12/22 09:15:18;;;;;;;571.13;37.10;;;6.50;99.90;;;;;;5033385;28;20146;-68
2022/12/22 09:17:44;;;;;;;489.90;33.28;;;6.50;99.90;;;;;;5068237;28;20186;-66
2022/12/22 09:20:10;;;;;;;544.97;35.42;;;6.50;99.90;;;;;;5052428;28;20123;-67
2022/12/22 09:22:35;;;;;;;456.52;30.15;;;6.60;99.90;;;;;;5038594;28;20040;-68
2022/12/22 09:25:02;;;;;;;522.20;32.08;;;6.50;99.90;;;;;;5027326;28;20033;-68
2022/12/22 09:27:29;;;;;;;501.33;31.02;;;6.50;99.90;;;;;;5051180;28;20507;-67
2022/12/22 09:29:54;;;;;;;494.10;32.75;;;6.60;99.90;;;;;;5033641;28;20048;-65
2022/12/22 09:32:20;;;;;;;389.73;29.75;;;6.50;99.90;;;;;;5043466;28;20057;-67
2022/12/22 09:34:46;;;;;;;529.67;33.90;;;6.50;99.90;;;;;;5055227;28;20039;-66
2022/12/22 09:37:14;;;;;;;424.60;29.08;;;6.60;99.90;;;;;;5050675;28;20072;-67
2022/12/22 09:39:40;;;;;;;444.13;27.27;;;6.50;99.90;;;;;;5049194;28;20119;-65
2022/12/22 09:42:16;;;;;;;385.75;25.98;;;6.50;99.90;;;;;;5065847;28;20178;-67
2022/12/22 09:44:46;;;;;;;300.35;24.77;;;6.40;99.90;;;;;;5065339;28;20041;-68
2022/12/22 09:47:21;;;;;;;432.48;29.23;;;6.50;99.90;;;;;;5034901;28;20037;-66
2022/12/22 09:49:47;;;;;;;376.17;29.27;;;6.60;99.90;;;;;;5048871;28;20037;-66
2022/12/22 09:52:32;;;;;;;414.88;31.05;;;6.60;99.90;;;;;;5048723;28;20538;-68
2022/12/22 09:54:59;;;;;;;270.33;26.38;;;6.70;99.90;;;;;;5045975;28;20361;-66
2022/12/22 09:57:30;;;;;;;291.55;26.75;;;6.60;99.90;;;;;;5049227;28;20044;-68
2022/12/22 10:00:14;;;;;;;320.75;27.60;;;6.60;99.90;;;;;;5066555;28;20124;-68
2022/12/22 10:03:07;;;;;;;385.25;30.42;;;6.70;99.90;;;;;;5050507;28;20178;-67
2022/12/22 10:05:44;;;;;;;253.70;25.20;;;6.80;99.90;;;;;;5045715;28;20041;-68
2022/12/22 10:08:26;;;;;;;223.15;24.52;;;6.70;99.90;;;;;;5045143;28;20040;-68
2022/12/22 10:10:55;;;;;;;180.13;20.50;;;6.90;99.90;;;;;;5066765;28;20553;-67
2022/12/22 10:13:21;;;;;;;155.90;19.60;;;6.80;99.90;;;;;;5053832;28;20051;-67
2022/12/22 10:15:47;;;;;;;164.65;21.95;;;6.90;99.90;;;;;;5051122;28;20045;-68
2022/12/22 10:18:19;;;;;;;161.38;22.20;;;6.90;99.90;;;;;;5047260;28;20048;-66
2022/12/22 10:21:04;;;;;;;127.68;20.95;;;6.90;99.90;;;;;;5055118;28;20487;-67
2022/12/22 10:23:34;;;;;;;157.45;22.33;;;6.80;99.90;;;;;;5049301;28;20067;-65
2022/12/22 10:26:26;;;;;;;135.45;20.02;;;6.90;99.90;;;;;;5053302;28;20487;-65
2022/12/22 10:29:05;;;;;;;145.32;22.48;;;6.80;99.90;;;;;;5039213;28;20041;-66
2022/12/22 10:31:33;;;;;;;162.18;22.23;;;6.80;99.90;;;;;;5033916;28;20107;-67
2022/12/22 10:34:16;;;;;;;135.45;21.70;;;6.80;99.90;;;;;;5049739;28;20037;-67
2022/12/22 10:36:49;;;;;;;106.75;18.50;;;6.70;99.90;;;;;;5050197;28;20033;-65
2022/12/22 10:39:25;;;;;;;;;;;6.70;99.90;;;;;;5049167;28;20076;-66
2022/12/22 10:41:54;;;;;;;158.05;20.25;;;6.80;99.90;;;;;;5035295;28;19917;-66
2022/12/22 10:44:33;;;;;;;128.40;19.58;;;7.00;99.90;;;;;;5053088;28;20045;-65
2022/12/22 10:47:10;;;;;;;136.82;22.55;;;7.00;99.90;;;;;;5048672;28;20091;-66
2022/12/22 10:49:38;;;;;;;118.78;20.25;;;7.00;99.90;;;;;;5046428;28;20080;-65
2022/12/22 10:52:13;;;;;;;105.60;21.98;;;7.00;99.90;;;;;;5045770;28;20052;-66
2022/12/22 10:54:42;;;;;;;116.32;21.83;;;7.00;99.90;;;;;;5046879;28;20036;-66
2022/12/22 10:57:15;;;;;;;109.93;23.15;;;7.00;99.90;;;;;;5033256;28;20029;-66
2022/12/22 10:59:53;;;;;;;;;;;6.90;99.90;;;;;;5041521;28;20051;-67
2022/12/22 11:02:36;;;;;;;100.07;21.67;;;6.80;99.90;;;;;;5045949;28;20003;-67
2022/12/22 11:05:11;;;;;;;98.40;21.75;;;6.90;99.90;;;;;;5075374;28;20135;-67
2022/12/22 11:07:45;;;;;;;96.45;22.02;;;6.90;99.90;;;;;;5051380;28;20402;-67
2022/12/22 11:10:35;;;;;;;95.40;21.35;;;6.90;99.90;;;;;;5048622;28;20041;-65
2022/12/22 11:13:28;;;;;;;98.45;22.27;;;7.10;99.90;;;;;;5065200;28;20036;-68
2022/12/22 11:16:00;;;;;;;100.72;22.23;;;7.20;99.90;;;;;;5041452;28;20550;-68
2022/12/22 11:18:44;;;;;;;79.00;21.25;;;7.30;99.90;;;;;;5053535;28;20033;-69
2022/12/22 11:21:21;;;;;;;75.18;20.00;;;7.20;99.90;;;;;;5040894;28;20439;-69
2022/12/22 11:24:09;;;;;;;83.47;21.25;;;7.30;99.90;;;;;;5056778;28;20329;-67
2022/12/22 11:26:59;;;;;;;78.22;20.63;;;7.30;99.90;;;;;;5046537;28;20033;-66
2022/12/22 11:29:53;;;;;;;84.50;20.08;;;7.50;99.90;;;;;;5046527;28;20127;-67
2022/12/22 11:32:36;;;;;;;82.72;20.70;;;7.60;99.90;;;;;;5047330;28;20045;-67
2022/12/22 11:35:15;;;;;;;95.78;20.95;;;7.50;99.90;;;;;;5042148;28;20040;-66
2022/12/22 11:37:55;;;;;;;89.40;21.90;;;7.60;99.90;;;;;;5038325;28;20040;-66
2022/12/22 11:40:39;;;;;;;82.20;19.13;;;7.80;99.90;;;;;;5031670;28;20028;-66
2022/12/22 11:43:14;;;;;;;76.95;18.65;;;7.70;99.90;;;;;;5042002;28;20045;-66
2022/12/22 11:45:58;;;;;;;79.90;18.52;;;7.90;99.90;;;;;;5044332;28;20041;-66
2022/12/22 11:48:35;;;;;;;69.32;17.08;;;7.90;99.90;;;;;;5043289;28;20509;-66
2022/12/22 11:51:13;;;;;;;64.88;18.13;;;8.00;99.90;;;;;;5042111;28;20032;-65
2022/12/22 11:53:50;;;;;;;57.22;15.43;;;7.90;99.90;;;;;;5043432;28;20041;-68
2022/12/22 11:56:35;;;;;;;63.45;17.30;;;8.00;99.90;;;;;;5038683;28;20048;-66
2022/12/22 11:59:42;;;;;;;59.45;16.45;;;8.00;99.90;;;;;;5042568;28;20395;-66
2022/12/22 12:02:16;;;;;;;62.85;18.58;;;8.20;99.90;;;;;;5059467;28;20143;-67
2022/12/22 12:05:18;;;;;;;65.28;17.63;;;8.20;99.90;;;;;;5063300;28;20041;-67
2022/12/22 12:08:16;;;;;;;65.10;18.48;;;8.30;99.90;;;;;;5061866;28;20048;-67
2022/12/22 12:10:51;;;;;;;73.32;19.95;;;8.30;99.90;;;;;;5036439;28;20048;-66
2022/12/22 12:13:33;;;;;;;68.72;18.17;;;8.30;99.90;;;;;;5049556;28;20076;-66
2022/12/22 12:16:12;;;;;;;73.28;19.90;;;8.30;99.90;;;;;;5025984;28;20036;-67
2022/12/22 12:18:57;;;;;;;79.75;20.55;;;8.30;99.90;;;;;;5051298;28;20159;-67
2022/12/22 12:21:41;;;;;;;78.07;19.77;;;8.40;99.90;;;;;;5047063;28;20148;-68
2022/12/22 12:24:22;;;;;;;79.05;18.77;;;8.40;99.90;;;;;;5045441;28;20048;-69
2022/12/22 12:26:47;;;;;;;75.55;19.10;;;8.50;99.90;;;;;;5045868;28;20084;-69
2022/12/22 12:29:18;;;;;;;81.00;19.35;;;8.50;99.90;;;;;;5058891;28;20105;-68
2022/12/22 12:31:59;;;;;;;75.22;18.88;;;8.60;99.90;;;;;;5045429;28;20053;-68
2022/12/22 12:34:28;;;;;;;74.72;18.60;;;8.70;99.90;;;;;;5050264;28;20056;-69
2022/12/22 12:37:02;;;;;;;54.95;16.10;;;8.70;99.90;;;;;;5043029;28;20645;-68
2022/12/22 12:39:38;;;;;;;56.55;15.32;;;8.70;99.90;;;;;;5044345;28;20132;-67
2022/12/22 12:42:15;;;;;;;56.45;14.60;;;8.80;99.90;;;;;;5043314;28;20041;-69
2022/12/22 12:44:41;;;;;;;55.70;14.63;;;8.70;99.90;;;;;;5044770;28;20407;-67
2022/12/22 12:47:24;;;;;;;62.78;14.50;;;8.80;99.90;;;;;;5051135;28;20040;-67
2022/12/22 12:49:57;;;;;;;51.60;13.63;;;8.90;99.90;;;;;;5045853;28;20034;-70
2022/12/22 12:52:52;;;;;;;53.95;14.55;;;8.80;99.90;;;;;;5045581;28;20037;-70
2022/12/22 12:55:33;;;;;;;51.05;14.10;;;8.80;99.90;;;;;;4996906;28;20055;-70
2022/12/22 12:58:01;;;;;;;53.17;13.85;;;8.80;99.90;;;;;;5051084;28;20037;-69
2022/12/22 13:00:33;;;;;;;49.17;13.77;;;8.80;99.90;;;;;;5031640;28;20025;-67
2022/12/22 13:03:00;;;;;;;;;;;8.90;99.90;;;;;;5049636;28;20082;-67
2022/12/22 13:05:47;;;;;;;52.17;14.73;;;9.00;99.90;;;;;;5080429;28;19916;-68
2022/12/22 13:08:23;;;;;;;45.30;14.80;;;8.90;99.90;;;;;;5036267;28;20028;-67
2022/12/22 13:10:52;;;;;;;43.63;13.88;;;8.90;99.90;;;;;;5034324;28;20033;-67
2022/12/22 13:13:20;;;;;;;51.10;14.18;;;8.90;99.90;;;;;;5048905;28;20045;-70
2022/12/22 13:16:08;;;;;;;46.95;14.43;;;8.90;99.90;;;;;;5050468;28;20035;-69
2022/12/22 13:18:33;;;;;;;47.25;13.25;;;8.90;99.90;;;;;;5050238;28;20120;-70
2022/12/22 13:20:59;;;;;;;45.50;14.25;;;8.80;99.90;;;;;;5049805;28;20166;-68
2022/12/22 13:23:41;;;;;;;44.88;13.05;;;8.90;99.90;;;;;;5050664;28;20033;-69
2022/12/22 13:26:15;;;;;;;41.92;12.35;;;8.80;99.90;;;;;;5034234;28;20379;-66
2022/12/22 13:28:45;;;;;;;44.65;13.50;;;8.90;99.90;;;;;;5050793;28;20069;-72
2022/12/22 13:31:21;;;;;;;49.85;13.73;;;8.80;99.90;;;;;;5030383;28;20087;-70
2022/12/22 13:33:59;;;;;;;46.85;13.13;;;8.90;99.90;;;;;;5029626;28;20038;-73
2022/12/22 13:36:27;;;;;;;45.10;14.45;;;8.80;99.90;;;;;;5042447;28;20443;-69
2022/12/22 13:39:01;;;;;;;41.97;13.35;;;8.80;99.90;;;;;;5065172;28;20110;-71
2022/12/22 13:41:28;;;;;;;44.17;13.30;;;8.80;99.90;;;;;;5047279;28;20048;-71
2022/12/22 13:44:00;;;;;;;44.97;13.05;;;8.70;99.90;;;;;;5046524;28;20052;-70
2022/12/22 13:46:26;;;;;;;46.83;13.40;;;8.60;99.90;;;;;;5052859;28;20119;-71
2022/12/22 13:48:56;;;;;;;40.63;12.40;;;8.60;99.90;;;;;;5054214;28;20037;-71
2022/12/22 13:51:27;;;;;;;36.67;12.68;;;8.70;99.90;;;;;;5030180;28;20037;-72
2022/12/22 13:54:00;;;;;;;42.60;12.70;;;8.70;99.90;;;;;;5047283;28;20495;-72
2022/12/22 13:56:38;;;;;;;39.08;12.52;;;8.70;99.90;;;;;;5043757;28;20043;-71
2022/12/22 13:59:13;;;;;;;38.17;12.23;;;8.60;99.90;;;;;;5043207;28;20040;-71
2022/12/22 14:01:55;;;;;;;38.10;11.57;;;8.60;99.90;;;;;;5045381;28;20043;-70
2022/12/22 14:04:21;;;;;;;38.83;11.20;;;8.50;99.90;;;;;;5046366;28;20082;-70
2022/12/22 14:06:47;;;;;;;33.72;11.10;;;8.40;99.90;;;;;;5048116;28;20052;-71
2022/12/22 14:09:19;;;;;;;34.53;10.48;;;8.40;99.90;;;;;;5045639;28;20272;-70
2022/12/22 14:11:55;;;;;;;37.25;10.85;;;8.40;99.90;;;;;;5059922;28;20043;-71
2022/12/22 14:14:25;;;;;;;35.55;10.88;;;8.30;99.90;;;;;;5041732;28;20103;-70
2022/12/22 14:16:53;;;;;;;27.52;9.43;;;8.40;99.90;;;;;;5048255;28;20095;-73
2022/12/22 14:19:21;;;;;;;34.40;10.68;;;8.50;99.90;;;;;;5058543;28;20076;-73
2022/12/22 14:21:52;;;;;;;33.13;9.95;;;8.40;99.90;;;;;;5047228;28;20045;-72
2022/12/22 14:24:26;;;;;;;30.98;10.63;;;8.50;99.90;;;;;;5042286;28;20044;-72
2022/12/22 14:26:52;;;;;;;38.35;11.80;;;8.50;99.90;;;;;;5045785;28;20040;-70
2022/12/22 14:29:23;;;;;;;37.50;12.20;;;8.50;99.90;;;;;;5044976;28;20414;-71
2022/12/22 14:31:54;;;;;;;35.85;11.48;;;8.50;99.90;;;;;;5042898;28;20475;-71
2022/12/22 14:34:28;;;;;;;28.65;10.05;;;8.50;99.90;;;;;;5056171;28;20139;-72
2022/12/22 14:36:54;;;;;;;36.45;10.48;;;8.40;99.90;;;;;;5038810;28;20041;-71
2022/12/22 14:39:25;;;;;;;39.08;10.40;;;8.30;99.90;;;;;;5040910;28;20029;-72
2022/12/22 14:41:54;;;;;;;32.75;9.70;;;8.30;99.90;;;;;;5040478;28;20040;-71
2022/12/22 14:44:33;;;;;;;29.48;10.10;;;8.30;99.90;;;;;;5042123;28;20116;-71
2022/12/22 14:47:11;;;;;;;33.28;9.70;;;8.20;99.90;;;;;;5058441;28;20041;-71
2022/12/22 14:49:43;;;;;;;24.88;9.73;;;8.20;99.90;;;;;;5044820;28;20533;-71
2022/12/22 14:52:34;;;;;;;28.17;10.00;;;8.10;99.90;;;;;;5043281;28;20044;-69
2022/12/22 14:55:02;;;;;;;31.67;9.52;;;8.10;99.90;;;;;;5040132;28;20559;-69
2022/12/22 14:57:35;;;;;;;30.48;9.70;;;8.00;99.90;;;;;;5042167;28;20079;-69
2022/12/22 15:00:07;;;;;;;30.30;9.75;;;8.00;99.90;;;;;;5043230;28;20048;-70
2022/12/22 15:02:38;;;;;;;26.70;9.95;;;8.10;99.90;;;;;;5042757;28;20076;-69
2022/12/22 15:05:36;;;;;;;28.08;9.60;;;8.00;99.90;;;;;;5027161;28;20106;-70
2022/12/22 15:08:03;;;;;;;28.77;10.75;;;8.00;99.90;;;;;;5044363;28;20040;-71
2022/12/22 15:10:40;;;;;;;33.65;10.38;;;8.00;99.90;;;;;;5026483;28;20035;-71
2022/12/22 15:13:20;;;;;;;33.38;10.73;;;7.90;99.90;;;;;;5038089;28;20368;-70
2022/12/22 15:15:45;;;;;;;38.42;11.05;;;7.90;99.90;;;;;;5057906;28;20037;-70
2022/12/22 15:18:13;;;;;;;32.30;11.07;;;7.90;99.90;;;;;;5044846;28;21853;-71
2022/12/22 15:20:38;;;;;;;32.83;12.05;;;7.80;99.90;;;;;;5061438;28;20064;-72
2022/12/22 15:23:13;;;;;;;35.70;12.68;;;7.90;99.90;;;;;;5048662;28;20140;-71
2022/12/22 15:25:38;;;;;;;38.28;13.23;;;7.80;99.90;;;;;;5023583;28;20083;-71
2022/12/22 15:28:04;;;;;;;34.05;13.73;;;7.90;99.90;;;;;;5025314;28;20037;-71
2022/12/22 15:30:29;;;;;;;35.83;14.13;;;7.90;99.90;;;;;;5044824;28;20045;-72
2022/12/22 15:32:55;;;;;;;39.58;15.55;;;7.80;99.90;;;;;;5042602;28;20051;-71
2022/12/22 15:35:30;;;;;;;40.47;15.57;;;7.90;99.90;;;;;;5021561;28;20060;-73
2022/12/22 15:37:56;;;;;;;45.53;17.13;;;7.90;99.90;;;;;;5039170;28;20398;-73
2022/12/22 15:40:23;;;;;;;46.35;17.25;;;7.90;99.90;;;;;;5027433;28;20033;-71
2022/12/22 15:42:49;;;;;;;44.75;17.67;;;7.90;99.90;;;;;;5040795;28;20505;-69
2022/12/22 15:45:17;;;;;;;51.17;18.15;;;7.90;99.90;;;;;;5043297;28;20293;-70
2022/12/22 15:47:46;;;;;;;46.28;17.58;;;7.90;99.90;;;;;;5042329;28;20049;-70
2022/12/22 15:50:33;;;;;;;52.08;17.17;;;7.90;99.90;;;;;;5043098;28;20052;-71
2022/12/22 15:52:59;;;;;;;46.88;18.90;;;7.80;99.90;;;;;;5040364;28;20450;-71
2022/12/22 15:55:25;;;;;;;51.00;18.02;;;7.80;99.90;;;;;;5042708;28;20037;-71
2022/12/22 15:57:56;;;;;;;53.20;18.00;;;7.70;99.90;;;;;;5045192;28;20544;-71
2022/12/22 16:00:22;;;;;;;57.13;18.65;;;7.70;99.90;;;;;;5043579;28;20439;-71
2022/12/22 16:02:48;;;;;;;59.92;20.17;;;7.60;99.90;;;;;;5044417;28;20044;-72
2022/12/22 16:05:15;;;;;;;59.20;19.13;;;7.60;99.90;;;;;;5043737;28;20442;-72
2022/12/22 16:07:42;;;;;;;56.70;20.52;;;7.50;99.90;;;;;;5046830;28;20045;-70
2022/12/22 16:10:29;;;;;;;64.05;21.05;;;7.50;99.90;;;;;;5011638;28;20084;-71
2022/12/22 16:12:59;;;;;;;64.38;19.85;;;7.40;99.90;;;;;;5048085;28;20111;-70
2022/12/22 16:15:34;;;;;;;67.05;20.77;;;7.40;99.90;;;;;;5034802;28;20534;-71
2022/12/22 16:18:00;;;;;;;63.25;21.20;;;7.30;99.90;;;;;;5046296;28;20041;-72
2022/12/22 16:20:30;;;;;;;64.05;20.70;;;7.40;99.90;;;;;;5010552;28;20692;-72
2022/12/22 16:22:56;;;;;;;77.90;22.65;;;7.30;99.90;;;;;;5047056;28;20049;-71
2022/12/22 16:25:26;;;;;;;73.50;21.90;;;7.30;99.90;;;;;;5080347;28;20049;-72
2022/12/22 16:27:53;;;;;;;73.43;21.73;;;7.20;99.90;;;;;;5047456;28;20052;-70
2022/12/22 16:30:21;;;;;;;73.72;23.00;;;7.30;99.90;;;;;;5053011;28;20075;-71